sensor_id;sensor_type;location;lat;lon;timestamp;P1;durP1;ratioP1;P2;durP2;ratioP2
52542;SDS011;38449;52.696;6.186;2023-11-21T00:02:10;23.20;;;11.48;;
52542;SDS011;38449;52.696;6.186;2023-11-21T00:04:37;22.95;;;11.35;;
52542;SDS011;38449;52.696;6.186;2023-11-21T00:07:03;23.90;;;11.95;;
52542;SDS011;38449;52.696;6.186;2023-11-21T00:09:32;22.60;;;12.23;;
52542;SDS011;38449;52.696;6.186;2023-11-21T00:11:58;28.83;;;12.45;;
52542;SDS011;38449;52.696;6.186;2023-11-21T00:14:28;25.52;;;11.95;;
52542;SDS011;38449;52.696;6.186;2023-11-21T00:16:54;27.45;;;12.63;;
52542;SDS011;38449;52.696;6.186;2023-11-21T00:19:21;26.75;;;12.57;;
52542;SDS011;38449;52.696;6.186;2023-11-21T00:21:47;25.70;;;12.38;;
52542;SDS011;38449;52.696;6.186;2023-11-21T00:24:13;29.27;;;12.18;;
52542;SDS011;38449;52.696;6.186;2023-11-21T00:26:40;28.92;;;12.55;;
52542;SDS011;38449;52.696;6.186;2023-11-21T00:29:06;26.70;;;12.32;;
52542;SDS011;38449;52.696;6.186;2023-11-21T00:31:36;30.33;;;12.13;;
52542;SDS011;38449;52.696;6.186;2023-11-21T00:34:03;31.20;;;12.60;;
52542;SDS011;38449;52.696;6.186;2023-11-21T00:36:34;28.10;;;12.50;;
52542;SDS011;38449;52.696;6.186;2023-11-21T00:39:00;30.63;;;12.32;;
52542;SDS011;38449;52.696;6.186;2023-11-21T00:41:28;26.58;;;11.88;;
52542;SDS011;38449;52.696;6.186;2023-11-21T00:43:55;26.75;;;11.13;;
52542;SDS011;38449;52.696;6.186;2023-11-21T00:46:21;27.13;;;12.55;;
52542;SDS011;38449;52.696;6.186;2023-11-21T00:48:47;28.88;;;12.20;;
52542;SDS011;38449;52.696;6.186;2023-11-21T00:51:14;27.58;;;11.77;;
52542;SDS011;38449;52.696;6.186;2023-11-21T00:53:40;26.67;;;12.27;;
52542;SDS011;38449;52.696;6.186;2023-11-21T00:56:06;24.95;;;11.95;;
52542;SDS011;38449;52.696;6.186;2023-11-21T00:58:34;31.05;;;13.07;;
52542;SDS011;38449;52.696;6.186;2023-11-21T01:01:01;23.77;;;12.10;;
52542;SDS011;38449;52.696;6.186;2023-11-21T01:03:29;26.50;;;13.80;;
52542;SDS011;38449;52.696;6.186;2023-11-21T01:05:55;31.20;;;11.77;;
52542;SDS011;38449;52.696;6.186;2023-11-21T01:08:21;26.95;;;11.85;;
52542;SDS011;38449;52.696;6.186;2023-11-21T01:10:49;29.05;;;12.70;;
52542;SDS011;38449;52.696;6.186;2023-11-21T01:13:16;26.58;;;12.15;;
52542;SDS011;38449;52.696;6.186;2023-11-21T01:15:42;29.05;;;11.75;;
52542;SDS011;38449;52.696;6.186;2023-11-21T01:18:08;28.35;;;12.55;;
52542;SDS011;38449;52.696;6.186;2023-11-21T01:20:35;27.00;;;12.75;;
52542;SDS011;38449;52.696;6.186;2023-11-21T01:23:01;25.00;;;12.20;;
52542;SDS011;38449;52.696;6.186;2023-11-21T01:25:27;24.50;;;12.13;;
52542;SDS011;38449;52.696;6.186;2023-11-21T01:27:53;25.55;;;11.73;;
52542;SDS011;38449;52.696;6.186;2023-11-21T01:30:20;29.83;;;13.85;;
52542;SDS011;38449;52.696;6.186;2023-11-21T01:32:46;24.80;;;11.23;;
52542;SDS011;38449;52.696;6.186;2023-11-21T01:35:13;28.55;;;13.20;;
52542;SDS011;38449;52.696;6.186;2023-11-21T01:37:39;26.35;;;11.18;;
52542;SDS011;38449;52.696;6.186;2023-11-21T01:40:06;25.25;;;11.90;;
52542;SDS011;38449;52.696;6.186;2023-11-21T01:42:35;23.75;;;11.10;;
52542;SDS011;38449;52.696;6.186;2023-11-21T01:45:02;21.52;;;11.07;;
52542;SDS011;38449;52.696;6.186;2023-11-21T01:47:33;25.23;;;11.05;;
52542;SDS011;38449;52.696;6.186;2023-11-21T01:50:02;24.50;;;11.30;;
52542;SDS011;38449;52.696;6.186;2023-11-21T01:52:32;23.13;;;10.57;;
52542;SDS011;38449;52.696;6.186;2023-11-21T01:55:00;24.38;;;12.98;;
52542;SDS011;38449;52.696;6.186;2023-11-21T01:57:28;25.98;;;11.48;;
52542;SDS011;38449;52.696;6.186;2023-11-21T01:59:55;21.92;;;12.43;;
52542;SDS011;38449;52.696;6.186;2023-11-21T02:02:24;20.90;;;9.75;;
52542;SDS011;38449;52.696;6.186;2023-11-21T02:04:50;25.83;;;11.43;;
52542;SDS011;38449;52.696;6.186;2023-11-21T02:07:17;26.10;;;10.90;;
52542;SDS011;38449;52.696;6.186;2023-11-21T02:09:45;18.60;;;11.02;;
52542;SDS011;38449;52.696;6.186;2023-11-21T02:12:11;23.90;;;11.10;;
52542;SDS011;38449;52.696;6.186;2023-11-21T02:14:37;25.80;;;11.38;;
52542;SDS011;38449;52.696;6.186;2023-11-21T02:17:04;28.42;;;13.02;;
52542;SDS011;38449;52.696;6.186;2023-11-21T02:19:30;26.25;;;11.75;;
52542;SDS011;38449;52.696;6.186;2023-11-21T02:21:58;22.15;;;10.65;;
52542;SDS011;38449;52.696;6.186;2023-11-21T02:24:28;25.55;;;11.73;;
52542;SDS011;38449;52.696;6.186;2023-11-21T02:26:55;23.60;;;10.98;;
52542;SDS011;38449;52.696;6.186;2023-11-21T02:29:21;23.58;;;11.70;;
52542;SDS011;38449;52.696;6.186;2023-11-21T02:31:53;26.00;;;10.73;;
52542;SDS011;38449;52.696;6.186;2023-11-21T02:34:21;26.40;;;11.25;;
52542;SDS011;38449;52.696;6.186;2023-11-21T02:36:49;24.35;;;11.70;;
52542;SDS011;38449;52.696;6.186;2023-11-21T02:39:15;24.77;;;12.65;;
52542;SDS011;38449;52.696;6.186;2023-11-21T02:41:45;25.05;;;10.85;;
52542;SDS011;38449;52.696;6.186;2023-11-21T02:44:11;27.52;;;12.15;;
52542;SDS011;38449;52.696;6.186;2023-11-21T02:46:38;23.60;;;11.48;;
52542;SDS011;38449;52.696;6.186;2023-11-21T02:49:05;26.85;;;12.07;;
52542;SDS011;38449;52.696;6.186;2023-11-21T02:51:36;25.58;;;11.05;;
52542;SDS011;38449;52.696;6.186;2023-11-21T02:54:03;23.65;;;11.52;;
52542;SDS011;38449;52.696;6.186;2023-11-21T02:56:32;32.20;;;12.05;;
52542;SDS011;38449;52.696;6.186;2023-11-21T02:58:59;25.20;;;11.50;;
52542;SDS011;38449;52.696;6.186;2023-11-21T03:01:26;24.10;;;12.13;;
52542;SDS011;38449;52.696;6.186;2023-11-21T03:03:53;26.08;;;12.20;;
52542;SDS011;38449;52.696;6.186;2023-11-21T03:06:21;27.27;;;13.35;;
52542;SDS011;38449;52.696;6.186;2023-11-21T03:08:48;23.52;;;12.20;;
52542;SDS011;38449;52.696;6.186;2023-11-21T03:11:14;28.27;;;12.60;;
52542;SDS011;38449;52.696;6.186;2023-11-21T03:13:41;24.95;;;12.60;;
52542;SDS011;38449;52.696;6.186;2023-11-21T03:16:11;25.27;;;12.90;;
52542;SDS011;38449;52.696;6.186;2023-11-21T03:18:38;24.02;;;12.70;;
52542;SDS011;38449;52.696;6.186;2023-11-21T03:21:05;22.45;;;11.98;;
52542;SDS011;38449;52.696;6.186;2023-11-21T03:23:33;24.27;;;13.88;;
52542;SDS011;38449;52.696;6.186;2023-11-21T03:25:59;24.85;;;13.48;;
52542;SDS011;38449;52.696;6.186;2023-11-21T03:28:26;23.80;;;12.70;;
52542;SDS011;38449;52.696;6.186;2023-11-21T03:30:55;25.52;;;13.23;;
52542;SDS011;38449;52.696;6.186;2023-11-21T03:33:22;28.77;;;14.52;;
52542;SDS011;38449;52.696;6.186;2023-11-21T03:35:48;24.75;;;13.65;;
52542;SDS011;38449;52.696;6.186;2023-11-21T03:38:15;25.63;;;12.48;;
52542;SDS011;38449;52.696;6.186;2023-11-21T03:40:42;28.00;;;13.55;;
52542;SDS011;38449;52.696;6.186;2023-11-21T03:43:08;24.80;;;13.57;;
52542;SDS011;38449;52.696;6.186;2023-11-21T03:45:34;23.80;;;12.80;;
52542;SDS011;38449;52.696;6.186;2023-11-21T03:48:01;28.30;;;13.95;;
52542;SDS011;38449;52.696;6.186;2023-11-21T03:50:28;23.52;;;13.35;;
52542;SDS011;38449;52.696;6.186;2023-11-21T03:52:55;25.90;;;11.95;;
52542;SDS011;38449;52.696;6.186;2023-11-21T03:55:21;28.88;;;13.75;;
52542;SDS011;38449;52.696;6.186;2023-11-21T03:57:49;23.48;;;12.57;;
52542;SDS011;38449;52.696;6.186;2023-11-21T04:00:15;26.23;;;13.20;;
52542;SDS011;38449;52.696;6.186;2023-11-21T04:02:42;28.23;;;14.02;;
52542;SDS011;38449;52.696;6.186;2023-11-21T04:05:08;30.05;;;14.73;;
52542;SDS011;38449;52.696;6.186;2023-11-21T04:07:35;27.25;;;13.40;;
52542;SDS011;38449;52.696;6.186;2023-11-21T04:10:03;24.50;;;13.18;;
52542;SDS011;38449;52.696;6.186;2023-11-21T04:12:33;23.92;;;13.65;;
52542;SDS011;38449;52.696;6.186;2023-11-21T04:14:59;27.30;;;14.20;;
52542;SDS011;38449;52.696;6.186;2023-11-21T04:17:26;28.20;;;13.60;;
52542;SDS011;38449;52.696;6.186;2023-11-21T04:19:52;26.90;;;13.82;;
52542;SDS011;38449;52.696;6.186;2023-11-21T04:22:18;27.40;;;13.82;;
52542;SDS011;38449;52.696;6.186;2023-11-21T04:24:44;30.50;;;13.85;;
52542;SDS011;38449;52.696;6.186;2023-11-21T04:27:11;32.78;;;14.73;;
52542;SDS011;38449;52.696;6.186;2023-11-21T04:29:38;24.30;;;13.98;;
52542;SDS011;38449;52.696;6.186;2023-11-21T04:32:05;27.98;;;15.13;;
52542;SDS011;38449;52.696;6.186;2023-11-21T04:34:31;27.40;;;14.68;;
52542;SDS011;38449;52.696;6.186;2023-11-21T04:36:58;31.55;;;14.30;;
52542;SDS011;38449;52.696;6.186;2023-11-21T04:39:24;29.45;;;13.93;;
52542;SDS011;38449;52.696;6.186;2023-11-21T04:41:51;27.23;;;14.20;;
52542;SDS011;38449;52.696;6.186;2023-11-21T04:44:17;29.30;;;14.80;;
52542;SDS011;38449;52.696;6.186;2023-11-21T04:46:43;29.63;;;16.40;;
52542;SDS011;38449;52.696;6.186;2023-11-21T04:49:10;26.50;;;14.25;;
52542;SDS011;38449;52.696;6.186;2023-11-21T04:51:36;29.48;;;16.00;;
52542;SDS011;38449;52.696;6.186;2023-11-21T04:54:03;29.23;;;14.23;;
52542;SDS011;38449;52.696;6.186;2023-11-21T04:56:31;28.92;;;13.80;;
52542;SDS011;38449;52.696;6.186;2023-11-21T04:58:57;32.50;;;15.52;;
52542;SDS011;38449;52.696;6.186;2023-11-21T05:01:24;30.15;;;13.95;;
52542;SDS011;38449;52.696;6.186;2023-11-21T05:03:50;28.83;;;14.93;;
52542;SDS011;38449;52.696;6.186;2023-11-21T05:06:16;35.17;;;15.75;;
52542;SDS011;38449;52.696;6.186;2023-11-21T05:08:43;29.50;;;15.00;;
52542;SDS011;38449;52.696;6.186;2023-11-21T05:11:09;32.33;;;15.52;;
52542;SDS011;38449;52.696;6.186;2023-11-21T05:13:36;34.58;;;14.65;;
52542;SDS011;38449;52.696;6.186;2023-11-21T05:16:03;32.25;;;16.75;;
52542;SDS011;38449;52.696;6.186;2023-11-21T05:18:33;33.10;;;16.02;;
52542;SDS011;38449;52.696;6.186;2023-11-21T05:21:00;28.85;;;15.40;;
52542;SDS011;38449;52.696;6.186;2023-11-21T05:23:26;32.13;;;15.13;;
52542;SDS011;38449;52.696;6.186;2023-11-21T05:25:53;36.80;;;15.90;;
52542;SDS011;38449;52.696;6.186;2023-11-21T05:28:19;29.65;;;14.55;;
52542;SDS011;38449;52.696;6.186;2023-11-21T05:30:46;30.83;;;14.77;;
52542;SDS011;38449;52.696;6.186;2023-11-21T05:33:12;32.90;;;15.38;;
52542;SDS011;38449;52.696;6.186;2023-11-21T05:35:38;36.15;;;15.75;;
52542;SDS011;38449;52.696;6.186;2023-11-21T05:38:05;38.60;;;15.98;;
52542;SDS011;38449;52.696;6.186;2023-11-21T05:40:31;36.10;;;15.93;;
52542;SDS011;38449;52.696;6.186;2023-11-21T05:42:57;35.40;;;16.38;;
52542;SDS011;38449;52.696;6.186;2023-11-21T05:45:24;45.83;;;17.45;;
52542;SDS011;38449;52.696;6.186;2023-11-21T05:47:52;33.88;;;15.18;;
52542;SDS011;38449;52.696;6.186;2023-11-21T05:50:18;37.47;;;16.88;;
52542;SDS011;38449;52.696;6.186;2023-11-21T05:52:45;33.33;;;14.90;;
52542;SDS011;38449;52.696;6.186;2023-11-21T05:55:12;42.92;;;15.18;;
52542;SDS011;38449;52.696;6.186;2023-11-21T05:57:40;33.67;;;15.30;;
52542;SDS011;38449;52.696;6.186;2023-11-21T06:00:12;34.50;;;15.13;;
52542;SDS011;38449;52.696;6.186;2023-11-21T06:02:46;36.50;;;16.17;;
52542;SDS011;38449;52.696;6.186;2023-11-21T06:05:16;40.20;;;16.33;;
52542;SDS011;38449;52.696;6.186;2023-11-21T06:07:44;38.15;;;16.48;;
52542;SDS011;38449;52.696;6.186;2023-11-21T06:10:11;34.03;;;15.95;;
52542;SDS011;38449;52.696;6.186;2023-11-21T06:12:40;41.42;;;18.13;;
52542;SDS011;38449;52.696;6.186;2023-11-21T06:15:08;38.47;;;17.02;;
52542;SDS011;38449;52.696;6.186;2023-11-21T06:17:37;42.63;;;16.17;;
52542;SDS011;38449;52.696;6.186;2023-11-21T06:20:11;36.45;;;18.02;;
52542;SDS011;38449;52.696;6.186;2023-11-21T06:22:42;41.15;;;17.20;;
52542;SDS011;38449;52.696;6.186;2023-11-21T06:25:08;43.13;;;17.65;;
52542;SDS011;38449;52.696;6.186;2023-11-21T06:30:07;45.85;;;18.88;;
52542;SDS011;38449;52.696;6.186;2023-11-21T06:32:35;43.40;;;17.60;;
52542;SDS011;38449;52.696;6.186;2023-11-21T06:35:03;35.83;;;18.02;;
52542;SDS011;38449;52.696;6.186;2023-11-21T06:37:33;40.33;;;17.88;;
52542;SDS011;38449;52.696;6.186;2023-11-21T06:40:00;49.20;;;19.90;;
52542;SDS011;38449;52.696;6.186;2023-11-21T06:42:27;42.15;;;17.92;;
52542;SDS011;38449;52.696;6.186;2023-11-21T06:44:54;48.85;;;19.60;;
52542;SDS011;38449;52.696;6.186;2023-11-21T06:47:25;40.95;;;17.67;;
52542;SDS011;38449;52.696;6.186;2023-11-21T06:49:52;36.80;;;17.90;;
52542;SDS011;38449;52.696;6.186;2023-11-21T06:52:19;36.15;;;17.42;;
52542;SDS011;38449;52.696;6.186;2023-11-21T06:54:45;41.55;;;18.45;;
52542;SDS011;38449;52.696;6.186;2023-11-21T06:57:13;36.75;;;16.33;;
52542;SDS011;38449;52.696;6.186;2023-11-21T06:59:39;38.65;;;15.80;;
52542;SDS011;38449;52.696;6.186;2023-11-21T07:02:07;42.20;;;17.17;;
52542;SDS011;38449;52.696;6.186;2023-11-21T07:04:33;40.25;;;17.90;;
52542;SDS011;38449;52.696;6.186;2023-11-21T07:07:00;40.08;;;17.45;;
52542;SDS011;38449;52.696;6.186;2023-11-21T07:09:28;39.47;;;17.67;;
52542;SDS011;38449;52.696;6.186;2023-11-21T07:11:55;37.97;;;17.25;;
52542;SDS011;38449;52.696;6.186;2023-11-21T07:14:21;37.13;;;17.13;;
52542;SDS011;38449;52.696;6.186;2023-11-21T07:16:47;38.13;;;16.85;;
52542;SDS011;38449;52.696;6.186;2023-11-21T07:19:14;30.50;;;16.75;;
52542;SDS011;38449;52.696;6.186;2023-11-21T07:21:40;34.50;;;16.25;;
52542;SDS011;38449;52.696;6.186;2023-11-21T07:24:07;30.65;;;16.40;;
52542;SDS011;38449;52.696;6.186;2023-11-21T07:26:34;29.33;;;15.48;;
52542;SDS011;38449;52.696;6.186;2023-11-21T07:29:01;36.90;;;16.05;;
52542;SDS011;38449;52.696;6.186;2023-11-21T07:31:28;32.72;;;15.93;;
52542;SDS011;38449;52.696;6.186;2023-11-21T07:33:55;35.47;;;15.55;;
52542;SDS011;38449;52.696;6.186;2023-11-21T07:36:25;36.03;;;16.88;;
52542;SDS011;38449;52.696;6.186;2023-11-21T07:38:52;33.28;;;16.67;;
52542;SDS011;38449;52.696;6.186;2023-11-21T07:41:19;33.03;;;15.35;;
52542;SDS011;38449;52.696;6.186;2023-11-21T07:43:45;29.67;;;15.43;;
52542;SDS011;38449;52.696;6.186;2023-11-21T07:46:12;36.70;;;16.52;;
52542;SDS011;38449;52.696;6.186;2023-11-21T07:48:39;32.20;;;17.55;;
52542;SDS011;38449;52.696;6.186;2023-11-21T07:51:06;30.58;;;14.90;;
52542;SDS011;38449;52.696;6.186;2023-11-21T07:53:34;26.33;;;13.98;;
52542;SDS011;38449;52.696;6.186;2023-11-21T07:56:04;24.98;;;13.60;;
52542;SDS011;38449;52.696;6.186;2023-11-21T07:58:32;23.52;;;12.77;;
52542;SDS011;38449;52.696;6.186;2023-11-21T08:01:01;25.73;;;13.05;;
52542;SDS011;38449;52.696;6.186;2023-11-21T08:03:29;22.42;;;12.13;;
52542;SDS011;38449;52.696;6.186;2023-11-21T08:05:56;22.85;;;12.82;;
52542;SDS011;38449;52.696;6.186;2023-11-21T08:08:23;22.52;;;11.07;;
52542;SDS011;38449;52.696;6.186;2023-11-21T08:10:50;19.30;;;10.48;;
52542;SDS011;38449;52.696;6.186;2023-11-21T08:13:26;19.20;;;10.95;;
52542;SDS011;38449;52.696;6.186;2023-11-21T08:15:53;16.88;;;8.82;;
52542;SDS011;38449;52.696;6.186;2023-11-21T08:18:20;16.95;;;9.80;;
52542;SDS011;38449;52.696;6.186;2023-11-21T08:20:46;16.15;;;9.35;;
52542;SDS011;38449;52.696;6.186;2023-11-21T08:23:16;17.73;;;9.70;;
52542;SDS011;38449;52.696;6.186;2023-11-21T08:25:43;18.00;;;10.98;;
52542;SDS011;38449;52.696;6.186;2023-11-21T08:28:10;14.57;;;8.25;;
52542;SDS011;38449;52.696;6.186;2023-11-21T08:30:36;15.68;;;8.40;;
52542;SDS011;38449;52.696;6.186;2023-11-21T08:33:03;15.82;;;8.85;;
52542;SDS011;38449;52.696;6.186;2023-11-21T08:35:29;14.40;;;8.50;;
52542;SDS011;38449;52.696;6.186;2023-11-21T08:37:56;13.98;;;7.70;;
52542;SDS011;38449;52.696;6.186;2023-11-21T08:40:23;15.25;;;8.57;;
52542;SDS011;38449;52.696;6.186;2023-11-21T08:42:49;15.50;;;8.50;;
52542;SDS011;38449;52.696;6.186;2023-11-21T08:45:17;16.63;;;8.55;;
52542;SDS011;38449;52.696;6.186;2023-11-21T08:47:44;17.17;;;8.90;;
52542;SDS011;38449;52.696;6.186;2023-11-21T08:50:11;16.40;;;9.10;;
52542;SDS011;38449;52.696;6.186;2023-11-21T08:52:38;16.00;;;9.30;;
52542;SDS011;38449;52.696;6.186;2023-11-21T08:55:04;18.77;;;9.57;;
52542;SDS011;38449;52.696;6.186;2023-11-21T08:57:40;15.57;;;9.73;;
52542;SDS011;38449;52.696;6.186;2023-11-21T09:00:11;20.35;;;9.98;;
52542;SDS011;38449;52.696;6.186;2023-11-21T09:02:38;18.02;;;9.52;;
52542;SDS011;38449;52.696;6.186;2023-11-21T09:05:09;19.88;;;10.23;;
52542;SDS011;38449;52.696;6.186;2023-11-21T09:07:37;18.70;;;9.88;;
52542;SDS011;38449;52.696;6.186;2023-11-21T09:10:05;17.88;;;9.63;;
52542;SDS011;38449;52.696;6.186;2023-11-21T09:12:34;19.23;;;10.30;;
52542;SDS011;38449;52.696;6.186;2023-11-21T09:15:04;19.80;;;11.20;;
52542;SDS011;38449;52.696;6.186;2023-11-21T09:17:32;18.88;;;9.48;;
52542;SDS011;38449;52.696;6.186;2023-11-21T09:19:59;19.73;;;9.85;;
52542;SDS011;38449;52.696;6.186;2023-11-21T09:22:26;18.65;;;9.68;;
52542;SDS011;38449;52.696;6.186;2023-11-21T09:24:55;18.42;;;10.63;;
52542;SDS011;38449;52.696;6.186;2023-11-21T09:27:23;20.13;;;10.20;;
52542;SDS011;38449;52.696;6.186;2023-11-21T09:29:51;17.58;;;10.02;;
52542;SDS011;38449;52.696;6.186;2023-11-21T09:32:18;19.30;;;10.18;;
52542;SDS011;38449;52.696;6.186;2023-11-21T09:34:48;17.20;;;9.57;;
52542;SDS011;38449;52.696;6.186;2023-11-21T09:37:16;17.60;;;9.73;;
52542;SDS011;38449;52.696;6.186;2023-11-21T09:39:42;18.38;;;9.07;;
52542;SDS011;38449;52.696;6.186;2023-11-21T09:45:02;16.02;;;10.25;;
52542;SDS011;38449;52.696;6.186;2023-11-21T09:47:35;18.42;;;9.95;;
52542;SDS011;38449;52.696;6.186;2023-11-21T09:50:04;15.05;;;8.70;;
52542;SDS011;38449;52.696;6.186;2023-11-21T09:52:37;15.20;;;8.13;;
52542;SDS011;38449;52.696;6.186;2023-11-21T09:55:27;17.08;;;8.32;;
52542;SDS011;38449;52.696;6.186;2023-11-21T09:58:02;16.33;;;8.45;;
52542;SDS011;38449;52.696;6.186;2023-11-21T10:00:39;16.35;;;8.73;;
52542;SDS011;38449;52.696;6.186;2023-11-21T10:03:13;16.52;;;9.18;;
52542;SDS011;38449;52.696;6.186;2023-11-21T10:05:44;16.17;;;7.88;;
52542;SDS011;38449;52.696;6.186;2023-11-21T10:08:12;19.50;;;8.73;;
52542;SDS011;38449;52.696;6.186;2023-11-21T10:10:45;14.43;;;7.82;;
52542;SDS011;38449;52.696;6.186;2023-11-21T10:13:15;17.63;;;8.48;;
52542;SDS011;38449;52.696;6.186;2023-11-21T10:15:43;19.50;;;9.15;;
52542;SDS011;38449;52.696;6.186;2023-11-21T10:18:14;22.45;;;9.77;;
52542;SDS011;38449;52.696;6.186;2023-11-21T10:20:41;19.88;;;9.40;;
52542;SDS011;38449;52.696;6.186;2023-11-21T10:23:09;16.50;;;8.60;;
52542;SDS011;38449;52.696;6.186;2023-11-21T10:25:37;22.15;;;9.95;;
52542;SDS011;38449;52.696;6.186;2023-11-21T10:28:03;26.45;;;12.13;;
52542;SDS011;38449;52.696;6.186;2023-11-21T10:30:33;26.23;;;13.70;;
52542;SDS011;38449;52.696;6.186;2023-11-21T10:33:04;33.03;;;16.15;;
52542;SDS011;38449;52.696;6.186;2023-11-21T10:38:13;30.20;;;14.35;;
52542;SDS011;38449;52.696;6.186;2023-11-21T10:40:40;33.70;;;15.38;;
52542;SDS011;38449;52.696;6.186;2023-11-21T10:43:12;29.58;;;16.02;;
52542;SDS011;38449;52.696;6.186;2023-11-21T10:45:40;30.58;;;15.10;;
52542;SDS011;38449;52.696;6.186;2023-11-21T10:48:08;27.13;;;14.25;;
52542;SDS011;38449;52.696;6.186;2023-11-21T10:50:41;24.65;;;13.77;;
52542;SDS011;38449;52.696;6.186;2023-11-21T10:53:09;26.05;;;13.40;;
52542;SDS011;38449;52.696;6.186;2023-11-21T10:55:37;28.38;;;15.07;;
52542;SDS011;38449;52.696;6.186;2023-11-21T10:58:04;26.05;;;13.70;;
52542;SDS011;38449;52.696;6.186;2023-11-21T11:00:32;20.85;;;12.27;;
52542;SDS011;38449;52.696;6.186;2023-11-21T11:02:59;24.83;;;14.30;;
52542;SDS011;38449;52.696;6.186;2023-11-21T11:05:27;22.52;;;12.45;;
52542;SDS011;38449;52.696;6.186;2023-11-21T11:08:05;24.02;;;13.43;;
52542;SDS011;38449;52.696;6.186;2023-11-21T11:10:32;21.17;;;12.43;;
52542;SDS011;38449;52.696;6.186;2023-11-21T11:12:58;24.00;;;13.73;;
52542;SDS011;38449;52.696;6.186;2023-11-21T11:15:25;25.13;;;15.05;;
52542;SDS011;38449;52.696;6.186;2023-11-21T11:17:52;22.02;;;14.38;;
52542;SDS011;38449;52.696;6.186;2023-11-21T11:20:25;22.88;;;14.00;;
52542;SDS011;38449;52.696;6.186;2023-11-21T11:31:27;21.60;;;12.07;;
52542;SDS011;38449;52.696;6.186;2023-11-21T11:36:59;18.58;;;11.63;;
52542;SDS011;38449;52.696;6.186;2023-11-21T11:39:29;19.65;;;11.73;;
52542;SDS011;38449;52.696;6.186;2023-11-21T11:41:56;18.52;;;11.50;;
52542;SDS011;38449;52.696;6.186;2023-11-21T11:47:15;19.05;;;11.35;;
52542;SDS011;38449;52.696;6.186;2023-11-21T11:55:11;19.88;;;12.52;;
52542;SDS011;38449;52.696;6.186;2023-11-21T11:57:48;20.88;;;13.65;;
52542;SDS011;38449;52.696;6.186;2023-11-21T12:00:16;23.38;;;12.02;;
52542;SDS011;38449;52.696;6.186;2023-11-21T12:02:47;23.25;;;14.38;;
52542;SDS011;38449;52.696;6.186;2023-11-21T12:05:16;22.92;;;12.63;;
52542;SDS011;38449;52.696;6.186;2023-11-21T12:10:17;21.85;;;12.82;;
52542;SDS011;38449;52.696;6.186;2023-11-21T12:12:45;22.17;;;12.88;;
52542;SDS011;38449;52.696;6.186;2023-11-21T12:15:13;21.85;;;12.27;;
52542;SDS011;38449;52.696;6.186;2023-11-21T12:17:41;20.38;;;12.68;;
52542;SDS011;38449;52.696;6.186;2023-11-21T12:20:09;17.30;;;11.40;;
52542;SDS011;38449;52.696;6.186;2023-11-21T12:23:07;16.65;;;11.07;;
52542;SDS011;38449;52.696;6.186;2023-11-21T12:25:32;16.08;;;10.93;;
52542;SDS011;38449;52.696;6.186;2023-11-21T12:27:59;15.15;;;9.98;;
52542;SDS011;38449;52.696;6.186;2023-11-21T12:30:27;14.57;;;9.63;;
52542;SDS011;38449;52.696;6.186;2023-11-21T12:32:56;11.65;;;8.15;;
52542;SDS011;38449;52.696;6.186;2023-11-21T12:35:24;12.15;;;8.25;;
52542;SDS011;38449;52.696;6.186;2023-11-21T12:37:52;12.70;;;8.70;;
52542;SDS011;38449;52.696;6.186;2023-11-21T12:40:20;14.68;;;9.20;;
52542;SDS011;38449;52.696;6.186;2023-11-21T12:42:49;13.45;;;8.10;;
52542;SDS011;38449;52.696;6.186;2023-11-21T12:45:21;11.30;;;8.93;;
52542;SDS011;38449;52.696;6.186;2023-11-21T12:47:52;12.85;;;8.63;;
52542;SDS011;38449;52.696;6.186;2023-11-21T12:50:26;11.93;;;8.80;;
52542;SDS011;38449;52.696;6.186;2023-11-21T12:52:57;10.30;;;8.27;;
52542;SDS011;38449;52.696;6.186;2023-11-21T12:55:25;11.18;;;8.82;;
52542;SDS011;38449;52.696;6.186;2023-11-21T12:57:52;12.65;;;8.75;;
52542;SDS011;38449;52.696;6.186;2023-11-21T13:00:20;11.60;;;8.10;;
52542;SDS011;38449;52.696;6.186;2023-11-21T13:03:03;12.05;;;9.20;;
52542;SDS011;38449;52.696;6.186;2023-11-21T13:05:40;11.23;;;8.10;;
52542;SDS011;38449;52.696;6.186;2023-11-21T13:08:11;10.40;;;8.07;;
52542;SDS011;38449;52.696;6.186;2023-11-21T13:10:43;11.20;;;7.63;;
52542;SDS011;38449;52.696;6.186;2023-11-21T13:13:12;9.43;;;7.20;;
52542;SDS011;38449;52.696;6.186;2023-11-21T13:15:50;11.05;;;7.30;;
52542;SDS011;38449;52.696;6.186;2023-11-21T13:18:23;11.48;;;7.75;;
52542;SDS011;38449;52.696;6.186;2023-11-21T13:20:55;10.25;;;6.93;;
52542;SDS011;38449;52.696;6.186;2023-11-21T13:23:23;10.65;;;7.40;;
52542;SDS011;38449;52.696;6.186;2023-11-21T13:25:50;10.35;;;7.45;;
52542;SDS011;38449;52.696;6.186;2023-11-21T13:28:18;10.38;;;7.70;;
52542;SDS011;38449;52.696;6.186;2023-11-21T13:30:47;11.60;;;7.43;;
52542;SDS011;38449;52.696;6.186;2023-11-21T13:33:14;9.63;;;7.47;;
52542;SDS011;38449;52.696;6.186;2023-11-21T13:35:53;9.95;;;6.85;;
52542;SDS011;38449;52.696;6.186;2023-11-21T13:38:21;10.30;;;8.07;;
52542;SDS011;38449;52.696;6.186;2023-11-21T13:40:55;10.60;;;7.47;;
52542;SDS011;38449;52.696;6.186;2023-11-21T13:43:24;9.60;;;6.57;;
52542;SDS011;38449;52.696;6.186;2023-11-21T13:45:52;11.07;;;7.05;;
52542;SDS011;38449;52.696;6.186;2023-11-21T13:48:40;8.02;;;6.63;;
52542;SDS011;38449;52.696;6.186;2023-11-21T13:51:08;9.63;;;6.55;;
52542;SDS011;38449;52.696;6.186;2023-11-21T13:53:46;9.68;;;7.40;;
52542;SDS011;38449;52.696;6.186;2023-11-21T13:56:15;10.88;;;6.88;;
52542;SDS011;38449;52.696;6.186;2023-11-21T13:58:45;11.20;;;7.20;;
52542;SDS011;38449;52.696;6.186;2023-11-21T14:01:18;9.75;;;6.70;;
52542;SDS011;38449;52.696;6.186;2023-11-21T14:04:00;11.10;;;6.63;;
52542;SDS011;38449;52.696;6.186;2023-11-21T14:06:49;10.35;;;7.85;;
52542;SDS011;38449;52.696;6.186;2023-11-21T14:09:20;9.05;;;6.40;;
52542;SDS011;38449;52.696;6.186;2023-11-21T14:11:49;11.18;;;7.03;;
52542;SDS011;38449;52.696;6.186;2023-11-21T14:14:17;10.20;;;6.55;;
52542;SDS011;38449;52.696;6.186;2023-11-21T14:16:44;8.90;;;6.95;;
52542;SDS011;38449;52.696;6.186;2023-11-21T14:19:11;9.18;;;6.65;;
52542;SDS011;38449;52.696;6.186;2023-11-21T14:21:43;9.25;;;7.22;;
52542;SDS011;38449;52.696;6.186;2023-11-21T14:24:11;10.95;;;7.22;;
52542;SDS011;38449;52.696;6.186;2023-11-21T14:26:43;10.77;;;6.57;;
52542;SDS011;38449;52.696;6.186;2023-11-21T14:29:15;11.38;;;6.93;;
52542;SDS011;38449;52.696;6.186;2023-11-21T14:31:46;10.63;;;6.90;;
52542;SDS011;38449;52.696;6.186;2023-11-21T14:34:13;10.07;;;6.38;;
52542;SDS011;38449;52.696;6.186;2023-11-21T14:36:40;9.52;;;6.47;;
52542;SDS011;38449;52.696;6.186;2023-11-21T14:39:08;8.13;;;5.82;;
52542;SDS011;38449;52.696;6.186;2023-11-21T14:41:46;8.60;;;6.15;;
52542;SDS011;38449;52.696;6.186;2023-11-21T14:44:12;9.63;;;6.45;;
52542;SDS011;38449;52.696;6.186;2023-11-21T14:46:39;10.05;;;6.60;;
52542;SDS011;38449;52.696;6.186;2023-11-21T14:49:09;8.40;;;5.63;;
52542;SDS011;38449;52.696;6.186;2023-11-21T14:51:49;10.15;;;7.32;;
52542;SDS011;38449;52.696;6.186;2023-11-21T14:54:27;9.38;;;6.85;;
52542;SDS011;38449;52.696;6.186;2023-11-21T14:57:12;8.85;;;6.55;;
52542;SDS011;38449;52.696;6.186;2023-11-21T14:59:48;9.15;;;6.25;;
52542;SDS011;38449;52.696;6.186;2023-11-21T15:02:18;11.45;;;7.00;;
52542;SDS011;38449;52.696;6.186;2023-11-21T15:04:49;10.68;;;6.13;;